Time,TemperatureF,DewpointF,PressureIn,WindDirection,WindDirectionDegrees,WindSpeedMPH,WindSpeedGustMPH,Humidity,HourlyPrecipIn,Conditions,Clouds,dailyrainin,SoftwareType,DateUTC
2013-05-29 00:01:00,71.5,59.0,29.97,SSE,151,0.0,0.0,65,0.00,,,0.00,weatherlink.com 1.10,2013-05-29 05:01:00,
2013-05-29 00:17:00,70.1,59.0,29.97,SSE,151,0.0,0.0,69,0.00,,,0.00,weatherlink.com 1.10,2013-05-29 05:17:00,
2013-05-29 00:32:00,68.7,59.0,29.97,SSE,151,0.0,0.0,72,0.00,,,0.00,weatherlink.com 1.10,2013-05-29 05:32:00,
2013-05-29 00:47:00,67.6,59.0,29.97,SSE,151,0.0,0.0,75,0.00,,,0.00,weatherlink.com 1.10,2013-05-29 05:47:00,
2013-05-29 01:02:00,66.5,59.0,29.97,SSE,151,0.0,0.0,78,0.00,,,0.00,weatherlink.com 1.10,2013-05-29 06:02:00,
2013-05-29 01:19:00,65.7,59.0,29.97,SSE,151,0.0,1.0,79,0.00,,,0.00,weatherlink.com 1.10,2013-05-29 06:19:00,
2013-05-29 01:34:00,65.4,58.0,29.96,SSE,151,0.0,1.0,78,0.00,,,0.00,weatherlink.com 1.10,2013-05-29 06:34:00,
2013-05-29 01:49:00,65.6,58.0,29.96,SSE,156,0.0,3.0,77,0.00,,,0.00,weatherlink.com 1.10,2013-05-29 06:49:00,
2013-05-29 02:04:00,66.2,58.0,29.97,SSE,147,0.0,2.0,76,0.00,,,0.00,weatherlink.com 1.10,2013-05-29 07:04:00,
2013-05-29 02:19:00,66.8,58.0,29.97,SSE,155,0.0,2.0,74,0.00,,,0.00,weatherlink.com 1.10,2013-05-29 07:19:00,
2013-05-29 02:36:00,67.0,58.0,29.96,SSE,161,0.0,1.0,73,0.00,,,0.00,weatherlink.com 1.10,2013-05-29 07:36:00,
2013-05-29 02:49:00,66.6,58.0,29.96,South,182,0.0,2.0,74,0.00,,,0.00,weatherlink.com 1.10,2013-05-29 07:49:00,
2013-05-29 03:04:00,66.2,58.0,29.96,South,182,0.0,1.0,75,0.00,,,0.00,weatherlink.com 1.10,2013-05-29 08:04:00,
2013-05-29 03:19:00,65.9,58.0,29.96,SSE,157,0.0,2.0,75,0.00,,,0.00,weatherlink.com 1.10,2013-05-29 08:19:00,
2013-05-29 03:36:00,66.3,58.0,29.97,SSE,157,0.0,5.0,75,0.00,,,0.00,weatherlink.com 1.10,2013-05-29 08:36:00,
2013-05-29 03:51:00,66.1,58.0,29.97,SSE,157,0.0,1.0,74,0.00,,,0.00,weatherlink.com 1.10,2013-05-29 08:51:00,
2013-05-29 04:06:00,65.6,58.0,29.98,SSE,158,0.0,2.0,76,0.00,,,0.00,weatherlink.com 1.10,2013-05-29 09:06:00,
2013-05-29 04:21:00,64.7,58.0,29.97,SE,139,0.0,1.0,79,0.00,,,0.00,weatherlink.com 1.10,2013-05-29 09:21:00,
2013-05-29 04:36:00,63.6,58.0,29.98,SE,139,0.0,0.0,81,0.00,,,0.00,weatherlink.com 1.10,2013-05-29 09:36:00,
2013-05-29 04:51:00,62.6,57.0,29.99,SE,139,0.0,0.0,83,0.00,,,0.00,weatherlink.com 1.10,2013-05-29 09:51:00,
2013-05-29 05:06:00,61.9,58.0,29.99,SE,139,0.0,0.0,86,0.00,,,0.00,weatherlink.com 1.10,2013-05-29 10:06:00,
2013-05-29 05:22:00,61.3,57.0,30.00,SE,139,0.0,0.0,87,0.00,,,0.00,weatherlink.com 1.10,2013-05-29 10:22:00,
2013-05-29 05:37:00,60.9,57.0,30.01,SE,139,0.0,1.0,87,0.00,,,0.00,weatherlink.com 1.10,2013-05-29 10:37:00,
2013-05-29 05:52:00,60.4,57.0,30.02,SE,139,0.0,0.0,89,0.00,,,0.00,weatherlink.com 1.10,2013-05-29 10:52:00,
2013-05-29 06:08:00,60.2,57.0,30.03,SE,139,0.0,0.0,90,0.00,,,0.00,weatherlink.com 1.10,2013-05-29 11:08:00,
2013-05-29 06:22:00,60.3,58.0,30.03,SE,139,0.0,0.0,91,0.00,,,0.00,weatherlink.com 1.10,2013-05-29 11:22:00,
2013-05-29 06:37:00,61.3,59.0,30.03,SE,139,0.0,0.0,91,0.00,,,0.00,weatherlink.com 1.10,2013-05-29 11:37:00,
2013-05-29 06:52:00,63.8,60.0,30.04,SE,124,0.0,1.0,87,0.00,,,0.00,weatherlink.com 1.10,2013-05-29 11:52:00,
2013-05-29 07:09:00,67.3,62.0,30.04,SE,124,0.0,2.0,82,0.00,,,0.00,weatherlink.com 1.10,2013-05-29 12:09:00,
2013-05-29 07:24:00,68.7,62.0,30.05,NNE,32,0.0,2.0,80,0.00,,,0.00,weatherlink.com 1.10,2013-05-29 12:24:00,
2013-05-29 07:39:00,69.8,63.0,30.05,NNE,32,0.0,1.0,79,0.00,,,0.00,weatherlink.com 1.10,2013-05-29 12:39:00,
2013-05-29 07:54:00,71.0,64.0,30.05,SE,137,0.0,3.0,78,0.00,,,0.00,weatherlink.com 1.10,2013-05-29 12:54:00,
2013-05-29 08:09:00,72.1,62.0,30.05,SSE,151,4.0,5.0,71,0.00,,,0.00,weatherlink.com 1.10,2013-05-29 13:09:00,
2013-05-29 08:24:00,73.0,63.0,30.04,SSE,150,0.0,5.0,70,0.00,,,0.00,weatherlink.com 1.10,2013-05-29 13:24:00,
2013-05-29 08:39:00,74.0,63.0,30.05,South,176,4.0,9.0,68,0.00,,,0.00,weatherlink.com 1.10,2013-05-29 13:39:00,
2013-05-29 08:56:00,74.8,64.0,30.05,ESE,122,3.0,8.0,68,0.00,,,0.00,weatherlink.com 1.10,2013-05-29 13:56:00,
2013-05-29 09:11:00,75.6,64.0,30.05,SSW,197,2.0,9.0,67,0.00,,,0.00,weatherlink.com 1.10,2013-05-29 14:11:00,
2013-05-29 09:26:00,76.4,64.0,30.04,SSW,208,4.0,8.0,65,0.00,,,0.00,weatherlink.com 1.10,2013-05-29 14:26:00,
2013-05-29 09:41:00,76.9,64.0,30.04,SSE,157,0.0,6.0,65,0.00,,,0.00,weatherlink.com 1.10,2013-05-29 14:41:00,
2013-05-29 09:56:00,78.0,64.0,30.03,SSE,147,5.0,5.0,62,0.00,,,0.00,weatherlink.com 1.10,2013-05-29 14:56:00,
2013-05-29 10:11:00,78.0,63.0,30.03,SSE,154,3.0,9.0,61,0.00,,,0.00,weatherlink.com 1.10,2013-05-29 15:11:00,
2013-05-29 10:26:00,78.5,64.0,30.03,SSW,196,0.0,8.0,62,0.00,,,0.00,weatherlink.com 1.10,2013-05-29 15:26:00,
2013-05-29 10:42:00,79.2,63.0,30.03,South,171,1.0,9.0,57,0.00,,,0.00,weatherlink.com 1.10,2013-05-29 15:42:00,
2013-05-29 10:57:00,80.3,62.0,30.03,SSE,166,2.0,9.0,54,0.00,,,0.00,weatherlink.com 1.10,2013-05-29 15:57:00,
2013-05-29 11:12:00,80.6,62.0,30.03,South,171,4.0,10.0,53,0.00,,,0.00,weatherlink.com 1.10,2013-05-29 16:12:00,
2013-05-29 11:27:00,81.2,61.0,30.03,SSE,160,1.0,10.0,50,0.00,,,0.00,weatherlink.com 1.10,2013-05-29 16:27:00,
2013-05-29 11:42:00,82.5,63.0,30.02,SE,144,3.0,6.0,51,0.00,,,0.00,weatherlink.com 1.10,2013-05-29 16:42:00,
2013-05-29 11:59:00,83.2,63.0,30.02,SSW,210,2.0,8.0,51,0.00,,,0.00,weatherlink.com 1.10,2013-05-29 16:59:00,
2013-05-29 12:14:00,83.0,63.0,30.02,South,190,0.0,11.0,51,0.00,,,0.00,weatherlink.com 1.10,2013-05-29 17:14:00,
2013-05-29 12:29:00,83.4,64.0,30.02,East,82,2.0,8.0,52,0.00,,,0.00,weatherlink.com 1.10,2013-05-29 17:29:00,
2013-05-29 12:44:00,83.8,65.0,30.00,WSW,242,2.0,11.0,53,0.00,,,0.00,weatherlink.com 1.10,2013-05-29 17:44:00,
2013-05-29 12:59:00,84.5,64.0,30.00,South,184,4.0,12.0,50,0.00,,,0.00,weatherlink.com 1.10,2013-05-29 17:59:00,
2013-05-29 13:14:00,85.4,65.0,30.00,SSE,161,3.0,12.0,51,0.00,,,0.00,weatherlink.com 1.10,2013-05-29 18:14:00,
2013-05-29 13:29:00,85.2,65.0,29.99,SE,144,0.0,9.0,51,0.00,,,0.00,weatherlink.com 1.10,2013-05-29 18:29:00,
2013-05-29 13:44:00,85.1,65.0,29.99,South,171,3.0,11.0,52,0.00,,,0.00,weatherlink.com 1.10,2013-05-29 18:44:00,
2013-05-29 13:59:00,85.6,68.0,29.99,SSW,212,3.0,9.0,56,0.00,,,0.00,weatherlink.com 1.10,2013-05-29 18:59:00,
2013-05-29 14:16:00,85.9,66.0,29.98,SSE,157,3.0,8.0,52,0.00,,,0.00,weatherlink.com 1.10,2013-05-29 19:16:00,
2013-05-29 14:31:00,86.6,67.0,29.98,SSE,166,4.0,13.0,53,0.00,,,0.00,weatherlink.com 1.10,2013-05-29 19:31:00,
2013-05-29 14:46:00,87.7,70.0,29.97,SSE,166,2.0,15.0,55,0.00,,,0.00,weatherlink.com 1.10,2013-05-29 19:46:00,
2013-05-29 15:01:00,87.5,69.0,29.97,SSE,159,3.0,14.0,54,0.00,,,0.00,weatherlink.com 1.10,2013-05-29 20:01:00,
2013-05-29 15:16:00,86.8,68.0,29.97,South,182,4.0,8.0,53,0.00,,,0.00,weatherlink.com 1.10,2013-05-29 20:16:00,
2013-05-29 15:31:00,86.6,67.0,29.97,SSE,161,1.0,10.0,52,0.00,,,0.00,weatherlink.com 1.10,2013-05-29 20:31:00,
2013-05-29 15:47:00,85.7,65.0,29.96,SE,128,2.0,12.0,51,0.00,,,0.00,weatherlink.com 1.10,2013-05-29 20:47:00,
2013-05-29 16:02:00,86.1,66.0,29.96,East,82,3.0,11.0,51,0.00,,,0.00,weatherlink.com 1.10,2013-05-29 21:02:00,
2013-05-29 16:17:00,87.0,66.0,29.95,SSW,211,2.0,10.0,49,0.00,,,0.00,weatherlink.com 1.10,2013-05-29 21:17:00,
2013-05-29 16:32:00,87.7,66.0,29.95,South,171,4.0,11.0,49,0.00,,,0.00,weatherlink.com 1.10,2013-05-29 21:32:00,
2013-05-29 16:47:00,87.5,65.0,29.95,South,180,1.0,11.0,48,0.00,,,0.00,weatherlink.com 1.10,2013-05-29 21:47:00,
2013-05-29 17:02:00,86.9,64.0,29.95,South,182,1.0,10.0,46,0.00,,,0.00,weatherlink.com 1.10,2013-05-29 22:02:00,
2013-05-29 17:17:00,86.8,64.0,29.95,SSE,152,0.0,13.0,46,0.00,,,0.00,weatherlink.com 1.10,2013-05-29 22:17:00,
2013-05-29 17:34:00,86.5,65.0,29.94,ESE,115,1.0,8.0,49,0.00,,,0.00,weatherlink.com 1.10,2013-05-29 22:34:00,
2013-05-29 17:49:00,86.0,66.0,29.94,SE,142,0.0,8.0,51,0.00,,,0.00,weatherlink.com 1.10,2013-05-29 22:49:00,
2013-05-29 18:04:00,85.1,66.0,29.93,SSE,161,1.0,4.0,53,0.00,,,0.00,weatherlink.com 1.10,2013-05-29 23:04:00,
2013-05-29 18:19:00,84.7,67.0,29.93,South,171,1.0,8.0,55,0.00,,,0.00,weatherlink.com 1.10,2013-05-29 23:19:00,
2013-05-29 18:34:00,84.2,67.0,29.93,SSE,158,3.0,9.0,56,0.00,,,0.00,weatherlink.com 1.10,2013-05-29 23:34:00,
2013-05-29 18:49:00,83.8,67.0,29.93,SSE,166,0.0,10.0,58,0.00,,,0.00,weatherlink.com 1.10,2013-05-29 23:49:00,
2013-05-29 19:04:00,83.4,68.0,29.93,SSE,157,1.0,5.0,60,0.00,,,0.00,weatherlink.com 1.10,2013-05-30 00:04:00,
2013-05-29 19:19:00,82.7,68.0,29.93,SSE,152,1.0,5.0,62,0.00,,,0.00,weatherlink.com 1.10,2013-05-30 00:19:00,
2013-05-29 19:36:00,81.6,68.0,29.92,East,85,0.0,4.0,64,0.00,,,0.00,weatherlink.com 1.10,2013-05-30 00:36:00,
2013-05-29 19:51:00,80.5,68.0,29.92,SSE,166,0.0,3.0,65,0.00,,,0.00,weatherlink.com 1.10,2013-05-30 00:51:00,
2013-05-29 20:06:00,79.4,67.0,29.92,SSE,150,0.0,4.0,67,0.00,,,0.00,weatherlink.com 1.10,2013-05-30 01:06:00,
2013-05-29 20:21:00,78.7,68.0,29.92,South,171,0.0,2.0,69,0.00,,,0.00,weatherlink.com 1.10,2013-05-30 01:21:00,
2013-05-29 20:36:00,77.9,68.0,29.92,SSE,148,1.0,3.0,71,0.00,,,0.00,weatherlink.com 1.10,2013-05-30 01:36:00,
2013-05-29 20:51:00,77.3,68.0,29.92,SSE,147,0.0,2.0,72,0.00,,,0.00,weatherlink.com 1.10,2013-05-30 01:51:00,
2013-05-29 21:06:00,76.2,67.0,29.91,SE,146,0.0,1.0,74,0.00,,,0.00,weatherlink.com 1.10,2013-05-30 02:06:00,
2013-05-29 21:22:00,75.1,67.0,29.92,SE,146,0.0,0.0,77,0.00,,,0.00,weatherlink.com 1.10,2013-05-30 02:22:00,
2013-05-29 21:37:00,74.2,67.0,29.92,SE,141,0.0,0.0,79,0.00,,,0.00,weatherlink.com 1.10,2013-05-30 02:37:00,
2013-05-29 21:52:00,73.5,67.0,29.92,SE,141,0.0,0.0,81,0.00,,,0.00,weatherlink.com 1.10,2013-05-30 02:52:00,
2013-05-29 22:08:00,72.9,67.0,29.92,SE,141,0.0,0.0,82,0.00,,,0.00,weatherlink.com 1.10,2013-05-30 03:08:00,
2013-05-29 22:22:00,72.5,67.0,29.91,SE,141,0.0,0.0,84,0.00,,,0.00,weatherlink.com 1.10,2013-05-30 03:22:00,
2013-05-29 22:37:00,72.3,67.0,29.92,SE,141,0.0,1.0,84,0.00,,,0.00,weatherlink.com 1.10,2013-05-30 03:37:00,
2013-05-29 22:52:00,72.4,67.0,29.92,SE,131,0.0,0.0,84,0.00,,,0.00,weatherlink.com 1.10,2013-05-30 03:52:00,
2013-05-29 23:07:00,72.8,67.0,29.93,SSE,159,0.0,3.0,83,0.00,,,0.00,weatherlink.com 1.10,2013-05-30 04:07:00,
2013-05-29 23:24:00,73.4,68.0,29.94,SSE,161,2.0,4.0,82,0.00,,,0.00,weatherlink.com 1.10,2013-05-30 04:24:00,
2013-05-29 23:39:00,73.6,67.0,29.95,SSW,196,0.0,2.0,81,0.00,,,0.00,weatherlink.com 1.10,2013-05-30 04:39:00,
2013-05-29 23:54:00,74.4,67.0,29.95,ESE,110,0.0,9.0,78,0.00,,,0.00,weatherlink.com 1.10,2013-05-30 04:54:00,